createdAt,value
2023-02-27T00:02:04.033Z,0.68
2023-02-27T00:04:31.718Z,0.60
2023-02-27T00:06:59.462Z,0.70
2023-02-27T00:09:27.173Z,0.47
2023-02-27T00:11:54.786Z,0.75
2023-02-27T00:14:22.576Z,0.70
2023-02-27T00:16:52.836Z,0.80
2023-02-27T00:19:21.667Z,0.47
2023-02-27T00:21:49.272Z,0.70
2023-02-27T00:24:17.047Z,1.17
2023-02-27T00:26:44.754Z,0.77
2023-02-27T00:29:12.336Z,0.90
2023-02-27T00:31:40.111Z,0.82
2023-02-27T00:34:09.238Z,0.70
2023-02-27T00:36:36.926Z,0.70
2023-02-27T00:39:05.035Z,0.75
2023-02-27T00:41:32.665Z,0.50
2023-02-27T00:44:00.482Z,1.02
2023-02-27T00:46:28.160Z,0.77
2023-02-27T00:48:56.641Z,0.75
2023-02-27T00:51:27.494Z,0.93
2023-02-27T00:53:55.574Z,1.00
2023-02-27T00:56:23.205Z,0.43
2023-02-27T00:58:50.806Z,0.95
2023-02-27T01:01:18.460Z,0.55
2023-02-27T01:03:46.208Z,1.05
2023-02-27T01:06:13.947Z,0.82
2023-02-27T01:08:43.046Z,0.57
2023-02-27T01:11:10.640Z,0.70
2023-02-27T01:13:38.470Z,0.47
2023-02-27T01:16:06.471Z,0.95
2023-02-27T01:18:34.868Z,1.00
2023-02-27T01:21:02.465Z,1.23
2023-02-27T01:23:30.072Z,1.08
2023-02-27T01:25:59.329Z,0.73
2023-02-27T01:28:27.014Z,0.80
2023-02-27T01:30:54.644Z,0.70
2023-02-27T01:33:22.549Z,0.70
2023-02-27T01:35:50.138Z,0.63
2023-02-27T01:38:17.842Z,1.63
2023-02-27T01:40:45.668Z,1.05
2023-02-27T01:43:16.561Z,0.93
2023-02-27T01:45:44.409Z,0.98
2023-02-27T01:48:15.079Z,0.73
2023-02-27T01:50:44.641Z,0.77
2023-02-27T01:53:12.496Z,0.75
2023-02-27T01:55:40.508Z,0.57
2023-02-27T01:58:09.926Z,0.98
2023-02-27T02:00:39.164Z,0.93
2023-02-27T02:03:12.511Z,1.05
2023-02-27T02:05:40.329Z,0.70
2023-02-27T02:08:08.303Z,0.65
2023-02-27T02:10:36.444Z,1.10
2023-02-27T02:13:04.046Z,1.33
2023-02-27T02:15:37.608Z,0.57
2023-02-27T02:18:11.986Z,0.82
2023-02-27T02:20:58.211Z,0.77
2023-02-27T02:23:50.229Z,0.93
2023-02-27T02:26:33.542Z,1.20
2023-02-27T02:29:34.275Z,0.88
2023-02-27T02:32:17.417Z,0.70
2023-02-27T02:34:56.490Z,0.93
2023-02-27T02:37:49.272Z,1.20
2023-02-27T02:40:20.186Z,0.60
2023-02-27T02:42:52.360Z,0.77
2023-02-27T02:45:26.288Z,0.65
2023-02-27T02:48:01.030Z,0.43
2023-02-27T02:50:31.148Z,0.60
2023-02-27T02:53:05.851Z,1.20
2023-02-27T02:55:36.442Z,0.90
2023-02-27T02:58:08.296Z,1.55
2023-02-27T03:00:38.032Z,1.80
2023-02-27T03:03:08.942Z,0.70
2023-02-27T03:05:38.823Z,1.00
2023-02-27T03:08:08.989Z,0.80
2023-02-27T03:10:40.383Z,1.23
2023-02-27T03:13:11.220Z,1.70
2023-02-27T03:15:41.434Z,1.00
2023-02-27T03:18:10.352Z,1.58
2023-02-27T03:20:40.535Z,0.98
2023-02-27T03:23:10.721Z,1.02
2023-02-27T03:25:40.105Z,0.68
2023-02-27T03:28:10.209Z,1.17
2023-02-27T03:30:39.672Z,0.88
2023-02-27T03:33:09.261Z,0.63
2023-02-27T03:35:41.768Z,0.88
2023-02-27T03:38:12.825Z,0.98
2023-02-27T03:40:46.055Z,1.02
2023-02-27T03:43:18.486Z,1.20
2023-02-27T03:45:52.546Z,1.02
2023-02-27T03:48:20.190Z,1.08
2023-02-27T03:50:47.819Z,0.95
2023-02-27T03:53:18.876Z,1.23
2023-02-27T03:55:48.694Z,0.82
2023-02-27T03:58:16.511Z,1.10
2023-02-27T04:00:44.148Z,1.00
2023-02-27T04:03:12.340Z,1.10
2023-02-27T04:05:40.016Z,0.73
2023-02-27T04:08:16.198Z,1.13
2023-02-27T04:10:55.916Z,1.13
2023-02-27T04:13:31.981Z,0.93
2023-02-27T04:16:07.872Z,1.35
2023-02-27T04:18:45.509Z,1.00
2023-02-27T04:21:21.552Z,1.05
2023-02-27T04:23:53.007Z,1.13
2023-02-27T04:26:25.671Z,0.82
2023-02-27T04:28:59.749Z,1.20
2023-02-27T04:31:30.957Z,1.33
2023-02-27T04:34:00.907Z,1.05
2023-02-27T04:36:29.516Z,1.00
2023-02-27T04:39:01.342Z,1.10
2023-02-27T04:41:31.729Z,0.95
2023-02-27T04:44:00.255Z,1.13
2023-02-27T04:46:29.290Z,1.58
2023-02-27T04:49:00.533Z,1.60
2023-02-27T04:51:30.096Z,1.48
2023-02-27T04:54:00.001Z,1.35
2023-02-27T04:56:31.804Z,1.45
2023-02-27T04:59:01.432Z,1.38
2023-02-27T05:01:32.556Z,1.00
2023-02-27T05:04:00.752Z,1.25
2023-02-27T05:06:30.544Z,1.33
2023-02-27T05:09:00.128Z,1.33
2023-02-27T05:11:29.791Z,1.33
2023-02-27T05:14:00.795Z,1.75
2023-02-27T05:16:33.090Z,1.23
2023-02-27T05:19:01.688Z,1.60
2023-02-27T05:21:31.902Z,1.27
2023-02-27T05:24:05.305Z,1.70
2023-02-27T05:26:38.789Z,1.48
2023-02-27T05:29:12.318Z,1.60
2023-02-27T05:31:44.877Z,1.33
2023-02-27T05:34:16.532Z,1.35
2023-02-27T05:36:46.706Z,1.98
2023-02-27T05:39:15.956Z,1.70
2023-02-27T05:41:46.192Z,1.25
2023-02-27T05:44:17.503Z,1.77
2023-02-27T05:46:47.812Z,1.35
2023-02-27T05:49:16.944Z,1.38
2023-02-27T05:51:46.132Z,1.88
2023-02-27T05:54:19.506Z,1.80
2023-02-27T05:56:48.557Z,1.63
2023-02-27T05:59:20.181Z,1.25
2023-02-27T06:01:47.824Z,1.25
2023-02-27T06:04:15.536Z,1.15
2023-02-27T06:06:43.463Z,1.45
2023-02-27T06:09:11.130Z,1.73
2023-02-27T06:11:38.780Z,1.38
2023-02-27T06:14:06.384Z,1.77
2023-02-27T06:16:38.185Z,2.13
2023-02-27T06:19:06.029Z,1.77
2023-02-27T06:21:34.103Z,1.85
2023-02-27T06:24:01.802Z,1.98
2023-02-27T06:26:29.766Z,1.70
2023-02-27T06:28:57.570Z,1.80
2023-02-27T06:31:25.196Z,2.38
2023-02-27T06:33:55.675Z,2.65
2023-02-27T06:36:23.520Z,2.45
2023-02-27T06:38:51.158Z,2.85
2023-02-27T06:41:19.185Z,2.47
2023-02-27T06:43:46.813Z,2.28
2023-02-27T06:46:14.494Z,2.63
2023-02-27T06:48:45.615Z,2.63
2023-02-27T06:51:14.767Z,2.42
2023-02-27T06:53:42.463Z,1.95
2023-02-27T06:56:10.083Z,2.22
2023-02-27T06:58:38.074Z,1.98
2023-02-27T07:01:05.933Z,2.25
2023-02-27T07:03:33.923Z,2.00
2023-02-27T07:06:02.481Z,2.25
2023-02-27T07:08:31.583Z,2.05
2023-02-27T07:10:59.443Z,2.45
2023-02-27T07:13:27.057Z,2.95
2023-02-27T07:15:54.738Z,1.92
2023-02-27T07:18:22.378Z,2.20
2023-02-27T07:20:51.134Z,2.17
2023-02-27T07:23:18.995Z,1.80
2023-02-27T07:25:49.632Z,2.65
2023-02-27T07:28:17.476Z,1.85
2023-02-27T07:30:45.123Z,2.42
2023-02-27T07:33:13.351Z,2.40
2023-02-27T07:35:41.037Z,2.75
2023-02-27T07:38:08.804Z,2.38
2023-02-27T07:40:36.465Z,2.55
2023-02-27T07:43:05.646Z,2.75
2023-02-27T07:45:33.347Z,2.28
2023-02-27T07:48:01.072Z,2.65
2023-02-27T07:50:28.709Z,4.13
2023-02-27T07:52:56.391Z,2.20
2023-02-27T07:55:24.090Z,4.00
2023-02-27T07:57:51.713Z,2.08
2023-02-27T08:00:22.236Z,2.30
2023-02-27T08:02:49.925Z,1.85
2023-02-27T08:05:17.847Z,2.47
2023-02-27T08:07:45.627Z,2.63
2023-02-27T08:10:15.556Z,1.80
2023-02-27T08:12:43.340Z,3.40
2023-02-27T08:15:11.168Z,2.67
2023-02-27T08:17:40.158Z,2.47
2023-02-27T08:20:09.456Z,2.38
2023-02-27T08:22:38.953Z,2.30
2023-02-27T08:25:07.779Z,2.88
2023-02-27T08:27:35.649Z,2.22
2023-02-27T08:30:03.306Z,2.55
2023-02-27T08:32:31.100Z,3.00
2023-02-27T08:35:00.317Z,2.53
2023-02-27T08:37:27.948Z,2.15
2023-02-27T08:39:55.666Z,2.67
2023-02-27T08:42:23.910Z,3.25
2023-02-27T08:44:53.811Z,3.05
2023-02-27T08:47:21.447Z,2.78
2023-02-27T08:49:49.087Z,2.88
2023-02-27T08:52:18.097Z,2.97
2023-02-27T08:54:45.815Z,3.13
2023-02-27T08:57:13.477Z,2.30
2023-02-27T08:59:41.099Z,2.15
2023-02-27T09:02:08.748Z,3.30
2023-02-27T09:04:37.250Z,2.15
2023-02-27T09:07:05.713Z,3.10
2023-02-27T09:09:37.980Z,2.75
2023-02-27T09:12:05.788Z,3.72
2023-02-27T09:14:33.543Z,3.47
2023-02-27T09:17:01.209Z,2.95
2023-02-27T09:19:28.960Z,3.05
2023-02-27T09:21:56.702Z,2.22
2023-02-27T09:24:26.380Z,3.67
2023-02-27T09:26:55.864Z,1.80
2023-02-27T09:29:24.251Z,2.78
2023-02-27T09:31:52.124Z,2.47
2023-02-27T09:34:19.855Z,2.30
2023-02-27T09:36:47.742Z,2.58
2023-02-27T09:39:15.362Z,2.38
2023-02-27T09:41:51.387Z,2.67
2023-02-27T09:44:43.570Z,2.35
2023-02-27T09:47:14.735Z,1.92
2023-02-27T09:49:48.535Z,2.40
2023-02-27T09:52:16.482Z,2.30
2023-02-27T09:54:44.702Z,2.60
2023-02-27T09:57:16.326Z,1.92
2023-02-27T09:59:49.203Z,2.60
2023-02-27T10:02:23.797Z,2.45
2023-02-27T10:04:54.380Z,2.00
2023-02-27T10:07:27.404Z,1.70
2023-02-27T10:10:00.617Z,1.80
2023-02-27T10:12:36.218Z,2.63
2023-02-27T10:15:09.993Z,2.00
2023-02-27T10:17:40.068Z,2.40
2023-02-27T10:20:10.676Z,1.67
2023-02-27T10:22:42.073Z,1.80
2023-02-27T10:25:30.428Z,0.77
2023-02-27T10:28:03.758Z,1.92
2023-02-27T10:30:34.885Z,1.67
2023-02-27T10:33:08.200Z,1.27
2023-02-27T10:35:37.078Z,1.50
2023-02-27T10:38:06.960Z,1.20
2023-02-27T10:40:37.210Z,1.20
2023-02-27T10:43:06.543Z,1.42
2023-02-27T10:45:37.029Z,1.30
2023-02-27T10:48:06.468Z,1.27
2023-02-27T10:50:35.554Z,1.02
2023-02-27T10:53:04.729Z,0.75
2023-02-27T10:55:33.458Z,1.48
2023-02-27T10:58:02.385Z,1.27
2023-02-27T11:00:39.551Z,1.00
2023-02-27T11:03:07.921Z,2.00
2023-02-27T11:05:36.944Z,1.52
2023-02-27T11:08:15.118Z,1.15
2023-02-27T11:10:54.205Z,1.35
2023-02-27T11:13:23.326Z,1.90
2023-02-27T11:16:03.506Z,1.33
2023-02-27T11:18:32.014Z,1.23
2023-02-27T11:21:11.356Z,1.10
2023-02-27T11:23:39.196Z,1.50
2023-02-27T11:26:11.470Z,0.77
2023-02-27T11:28:39.134Z,1.13
2023-02-27T11:31:15.762Z,1.08
2023-02-27T11:33:50.627Z,1.55
2023-02-27T11:36:18.599Z,1.40
2023-02-27T11:38:52.824Z,1.70
2023-02-27T11:41:20.585Z,1.13
2023-02-27T11:43:49.294Z,1.50
2023-02-27T11:46:45.746Z,1.70
2023-02-27T11:49:18.171Z,1.70
2023-02-27T11:51:51.294Z,1.63
2023-02-27T11:54:29.996Z,1.67
2023-02-27T11:56:59.747Z,1.45
2023-02-27T11:59:31.766Z,1.13
2023-02-27T12:02:04.391Z,1.10
2023-02-27T12:04:40.018Z,1.27
2023-02-27T12:07:13.494Z,1.33
2023-02-27T12:09:44.121Z,1.08
2023-02-27T12:12:21.682Z,1.10
2023-02-27T12:14:51.568Z,1.38
2023-02-27T12:17:24.154Z,1.48
2023-02-27T12:19:57.625Z,1.30
2023-02-27T12:22:27.599Z,1.25
2023-02-27T12:24:58.678Z,1.13
2023-02-27T12:27:32.779Z,0.88
2023-02-27T12:30:04.719Z,1.02
2023-02-27T12:32:37.229Z,1.23
2023-02-27T12:35:08.020Z,1.15
2023-02-27T12:37:36.146Z,1.00
2023-02-27T12:40:08.025Z,1.50
2023-02-27T12:42:43.970Z,1.15
2023-02-27T12:45:29.605Z,1.27
2023-02-27T12:48:04.487Z,0.93
2023-02-27T12:50:39.143Z,1.10
2023-02-27T12:53:16.313Z,1.30
2023-02-27T12:56:00.746Z,1.00
2023-02-27T12:58:36.370Z,1.27
2023-02-27T13:01:07.763Z,1.10
2023-02-27T13:03:41.028Z,1.08
2023-02-27T13:06:15.088Z,1.30
2023-02-27T13:08:54.586Z,0.90
2023-02-27T13:11:25.717Z,0.90
2023-02-27T13:13:56.367Z,1.65
2023-02-27T13:16:27.454Z,1.17
2023-02-27T13:19:01.620Z,1.15
2023-02-27T13:21:32.148Z,1.30
2023-02-27T13:24:05.718Z,1.00
2023-02-27T13:26:35.839Z,0.95
2023-02-27T13:29:04.538Z,1.27
2023-02-27T13:31:35.372Z,1.02
2023-02-27T13:34:08.722Z,0.88
2023-02-27T13:36:39.181Z,1.02
2023-02-27T13:39:28.338Z,0.70
2023-02-27T13:41:56.112Z,1.00
2023-02-27T13:44:41.286Z,1.00
2023-02-27T13:47:27.329Z,1.23
2023-02-27T13:49:57.154Z,1.13
2023-02-27T13:52:29.904Z,0.70
2023-02-27T13:55:06.292Z,1.20
2023-02-27T13:57:39.539Z,1.17
2023-02-27T14:00:12.417Z,1.52
2023-02-27T14:02:57.987Z,1.10
2023-02-27T14:05:29.729Z,1.20
2023-02-27T14:08:00.155Z,0.88
2023-02-27T14:10:29.006Z,1.10
2023-02-27T14:12:58.928Z,0.90
2023-02-27T14:15:45.013Z,1.20
2023-02-27T14:18:33.978Z,1.00
2023-02-27T14:21:03.388Z,1.33
2023-02-27T14:23:31.841Z,0.82
2023-02-27T14:26:03.581Z,1.17
2023-02-27T14:28:33.134Z,0.70
2023-02-27T14:31:02.999Z,1.15
2023-02-27T14:33:40.098Z,1.42
2023-02-27T14:36:14.899Z,1.52
2023-02-27T14:38:42.531Z,1.00
2023-02-27T14:41:14.531Z,0.63
2023-02-27T14:43:44.967Z,1.35
2023-02-27T14:46:15.585Z,1.08
2023-02-27T14:48:43.321Z,0.98
2023-02-27T14:51:12.331Z,0.82
2023-02-27T14:53:40.041Z,1.10
2023-02-27T14:56:07.866Z,1.77
2023-02-27T14:58:35.495Z,1.20
2023-02-27T15:01:10.112Z,0.77
2023-02-27T15:03:42.064Z,1.03
2023-02-27T15:06:19.481Z,1.23
2023-02-27T15:08:49.217Z,1.30
2023-02-27T15:11:18.238Z,1.15
2023-02-27T15:13:46.517Z,1.38
2023-02-27T15:16:21.233Z,1.70
2023-02-27T15:18:50.821Z,0.85
2023-02-27T15:21:21.361Z,0.82
2023-02-27T15:23:55.058Z,1.02
2023-02-27T15:26:22.905Z,1.10
2023-02-27T15:28:51.000Z,1.30
2023-02-27T15:31:20.105Z,1.05
2023-02-27T15:33:47.959Z,1.00
2023-02-27T15:36:19.978Z,1.30
2023-02-27T15:39:03.438Z,1.08
2023-02-27T15:41:38.469Z,1.60
2023-02-27T15:44:06.424Z,0.88
2023-02-27T15:46:34.234Z,1.10
2023-02-27T15:49:02.092Z,1.23
2023-02-27T15:51:30.220Z,1.85
2023-02-27T15:54:00.280Z,1.70
2023-02-27T15:56:29.590Z,1.75
2023-02-27T15:59:00.714Z,1.60
2023-02-27T16:01:30.733Z,1.30
2023-02-27T16:04:00.848Z,1.42
2023-02-27T16:06:30.397Z,1.35
2023-02-27T16:09:00.651Z,1.50
2023-02-27T16:11:29.089Z,1.50
2023-02-27T16:13:57.767Z,1.23
2023-02-27T16:16:28.118Z,0.90
2023-02-27T16:18:56.842Z,1.25
2023-02-27T16:21:25.238Z,1.52
2023-02-27T16:23:54.066Z,1.63
2023-02-27T16:26:27.070Z,1.60
2023-02-27T16:28:55.743Z,1.60
2023-02-27T16:31:24.964Z,1.73
2023-02-27T16:33:53.077Z,1.50
2023-02-27T16:36:21.952Z,2.28
2023-02-27T16:38:53.116Z,1.50
2023-02-27T16:41:21.677Z,1.42
2023-02-27T16:43:51.116Z,1.77
2023-02-27T16:46:21.100Z,1.30
2023-02-27T16:48:52.140Z,1.55
2023-02-27T16:51:21.567Z,1.52
2023-02-27T16:53:49.156Z,1.67
2023-02-27T16:56:18.155Z,1.38
2023-02-27T16:58:47.742Z,1.55
2023-02-27T17:01:16.998Z,2.10
2023-02-27T17:03:47.032Z,1.80
2023-02-27T17:06:15.148Z,1.73
2023-02-27T17:08:43.636Z,1.83
2023-02-27T17:11:11.606Z,1.70
2023-02-27T17:13:40.303Z,1.95
2023-02-27T17:16:08.578Z,1.75
2023-02-27T17:18:37.960Z,1.65
2023-02-27T17:21:05.978Z,2.15
2023-02-27T17:23:33.762Z,1.88
2023-02-27T17:26:01.423Z,1.63
2023-02-27T17:28:29.033Z,1.48
2023-02-27T17:30:56.736Z,2.25
2023-02-27T17:33:24.359Z,2.17
2023-02-27T17:36:01.848Z,2.42
2023-02-27T17:38:33.755Z,2.28
2023-02-27T17:41:06.788Z,2.60
2023-02-27T17:43:34.840Z,2.17
2023-02-27T17:46:03.147Z,2.38
2023-02-27T17:48:30.824Z,1.90
2023-02-27T17:51:05.696Z,2.40
2023-02-27T17:53:33.411Z,1.90
2023-02-27T17:56:01.032Z,2.17
2023-02-27T17:58:28.630Z,2.05
2023-02-27T18:00:56.294Z,1.52
2023-02-27T18:03:23.944Z,2.05
2023-02-27T18:05:52.334Z,2.30
2023-02-27T18:08:21.349Z,2.30
2023-02-27T18:10:49.200Z,2.50
2023-02-27T18:13:16.894Z,1.85
2023-02-27T18:15:44.812Z,2.83
2023-02-27T18:18:12.950Z,2.22
2023-02-27T18:20:40.846Z,2.95
2023-02-27T18:23:08.723Z,4.32
2023-02-27T18:25:38.087Z,2.45
2023-02-27T18:28:06.126Z,2.40
2023-02-27T18:30:37.410Z,1.88
2023-02-27T18:33:05.046Z,2.45
2023-02-27T18:35:32.824Z,1.92
2023-02-27T18:38:02.267Z,1.55
2023-02-27T18:40:29.923Z,2.30
2023-02-27T18:42:58.962Z,1.92
2023-02-27T18:45:29.566Z,1.88
2023-02-27T18:47:57.361Z,2.22
2023-02-27T18:50:25.343Z,2.08
2023-02-27T18:52:54.241Z,2.28
2023-02-27T18:55:21.885Z,2.15
2023-02-27T18:57:56.502Z,1.85
2023-02-27T19:00:25.704Z,2.53
2023-02-27T19:02:54.310Z,2.20
2023-02-27T19:05:22.086Z,1.63
2023-02-27T19:07:49.769Z,2.08
2023-02-27T19:10:17.475Z,2.33
2023-02-27T19:12:45.109Z,2.08
2023-02-27T19:15:13.141Z,2.10
2023-02-27T19:17:42.131Z,2.00
2023-02-27T19:20:14.380Z,2.85
2023-02-27T19:22:42.186Z,2.20
2023-02-27T19:25:09.967Z,2.60
2023-02-27T19:27:38.042Z,1.90
2023-02-27T19:30:08.273Z,2.60
2023-02-27T19:32:40.071Z,2.53
2023-02-27T19:35:14.006Z,2.83
2023-02-27T19:37:41.908Z,2.58
2023-02-27T19:40:10.462Z,2.22
2023-02-27T19:42:38.183Z,1.90
2023-02-27T19:45:06.378Z,2.28
2023-02-27T19:47:34.159Z,2.42
2023-02-27T19:50:01.895Z,2.20
2023-02-27T19:52:30.887Z,1.98
2023-02-27T19:54:58.519Z,2.28
2023-02-27T19:57:28.734Z,2.60
2023-02-27T19:59:56.373Z,2.55
2023-02-27T20:02:24.405Z,2.33
2023-02-27T20:04:52.065Z,2.88
2023-02-27T20:07:19.700Z,2.53
2023-02-27T20:09:48.689Z,2.58
2023-02-27T20:12:16.386Z,2.47
2023-02-27T20:14:44.572Z,2.88
2023-02-27T20:17:12.358Z,3.10
2023-02-27T20:19:40.051Z,2.38
2023-02-27T20:22:07.825Z,2.40
2023-02-27T20:24:35.543Z,2.72
2023-02-27T20:27:04.580Z,2.55
2023-02-27T20:29:32.236Z,3.22
2023-02-27T20:32:00.151Z,2.92
2023-02-27T20:34:28.954Z,2.33
2023-02-27T20:36:57.607Z,2.88
2023-02-27T20:39:25.592Z,2.65
2023-02-27T20:41:53.207Z,2.75
2023-02-27T20:44:22.312Z,2.60
2023-02-27T20:46:49.955Z,2.67
2023-02-27T20:49:17.652Z,2.33
2023-02-27T20:51:45.436Z,2.55
2023-02-27T20:54:16.493Z,2.28
2023-02-27T20:56:44.565Z,3.08
2023-02-27T20:59:13.758Z,2.92
2023-02-27T21:01:43.310Z,2.88
2023-02-27T21:04:11.314Z,2.83
2023-02-27T21:06:38.986Z,2.58
2023-02-27T21:09:07.430Z,2.85
2023-02-27T21:11:35.417Z,3.53
2023-02-27T21:14:04.508Z,2.97
2023-02-27T21:16:32.480Z,2.55
2023-02-27T21:19:01.462Z,3.40
2023-02-27T21:21:31.418Z,3.95
2023-02-27T21:23:59.770Z,3.30
2023-02-27T21:26:28.406Z,3.30
2023-02-27T21:28:56.983Z,3.25
2023-02-27T21:31:26.124Z,3.65
2023-02-27T21:33:55.624Z,3.83
2023-02-27T21:36:28.939Z,3.35
2023-02-27T21:38:58.038Z,3.75
2023-02-27T21:41:25.814Z,3.30
2023-02-27T21:43:57.980Z,3.38
2023-02-27T21:46:33.736Z,3.80
2023-02-27T21:49:01.666Z,3.50
2023-02-27T21:51:40.130Z,4.05
2023-02-27T21:54:09.156Z,3.45
2023-02-27T21:56:36.910Z,2.35
2023-02-27T21:59:05.301Z,4.45
2023-02-27T22:01:33.557Z,3.13
2023-02-27T22:04:01.837Z,3.30
2023-02-27T22:06:32.602Z,3.85
2023-02-27T22:09:01.413Z,3.15
2023-02-27T22:11:29.906Z,3.22
2023-02-27T22:13:58.061Z,3.10
2023-02-27T22:16:25.772Z,3.03
2023-02-27T22:18:54.029Z,3.17
2023-02-27T22:21:24.072Z,3.25
2023-02-27T22:23:53.230Z,2.65
2023-02-27T22:26:22.770Z,4.25
2023-02-27T22:28:50.570Z,3.60
2023-02-27T22:31:19.480Z,3.50
2023-02-27T22:33:47.799Z,3.40
2023-02-27T22:36:16.518Z,3.47
2023-02-27T22:38:44.371Z,3.60
2023-02-27T22:41:14.203Z,3.22
2023-02-27T22:43:44.610Z,3.05
2023-02-27T22:46:13.129Z,3.42
2023-02-27T22:48:40.843Z,3.50
2023-02-27T22:51:10.562Z,2.85
2023-02-27T22:53:40.092Z,3.40
2023-02-27T22:56:08.868Z,4.22
2023-02-27T22:58:39.037Z,4.10
2023-02-27T23:01:10.322Z,4.70
2023-02-27T23:03:38.529Z,3.58
2023-02-27T23:06:06.707Z,4.18
2023-02-27T23:08:34.317Z,3.67
2023-02-27T23:11:01.928Z,4.20
2023-02-27T23:13:29.573Z,3.60
2023-02-27T23:15:58.573Z,4.35
2023-02-27T23:18:26.296Z,3.33
2023-02-27T23:20:53.982Z,3.80
2023-02-27T23:23:22.886Z,3.53
2023-02-27T23:25:50.498Z,3.63
2023-02-27T23:28:18.259Z,3.90
2023-02-27T23:30:45.891Z,3.88
2023-02-27T23:33:14.917Z,3.97
2023-02-27T23:35:43.299Z,4.57
2023-02-27T23:38:11.193Z,3.25
2023-02-27T23:40:38.802Z,3.60
2023-02-27T23:43:06.470Z,3.70
2023-02-27T23:45:33.464Z,4.05
2023-02-27T23:48:02.509Z,5.13
2023-02-27T23:50:32.579Z,3.92
2023-02-27T23:53:00.663Z,4.28
2023-02-27T23:55:30.176Z,4.38
2023-02-27T23:57:59.002Z,4.60
